Portada
METAR-TAF:

METAR-TAF

Aeropuertos :

Aeropuerto de Rabat-Salé

Rabat, Marruecos

latitud: 34-03N, longitud: 006-46W, altitud: 84 m

Observación

El informe se hizo hace 20 minutos, a las 01:00 UTC
Viento 3 kt del sur-sureste
Temperatura 10°C
Humedad 100%
Presión 1018 hPa
Visibilidad: 6000 m
Nubes dispersas a una altura de 2000 ft

METAR: GMME 020100Z 16003KT 6000 SCT020 10/10 Q1018 NOSIG

Hora: 02:20 (01:20 UTC)

Pronóstico

El informe se hizo hace 2 horas y 20 minutos, a las 23:00 UTC
Pronóstico válido del 02 a las 00 UTC al 03 a las 06 UTC
Viento 8 kt del suroeste
Visibilidad: 6000 m
Nubes dispersas a una altura de 2000 ft
Temporalmente
del 02 a las 02 UTC al 02 a las 06 UTC
Viento 12 kt del sureste
Visibilidad: 3000 m
Nubes dispersas a una altura de 1300 ft
Cielo nuboso a una altura de 9000 ft
lluvia

TAF: GMME 012300Z 0200/0306 22008KT 6000 SCT020 TEMPO 0202/0206 14012KT 3000 RA SCT013 BKN090

Observaciones y pronósticos meteorológicos de más de 4000 aeropuertos (mensajes METAR y TAF).

Los puntos amarillos y rojos representan las estaciones disponibles.

Ponga el ratón en el punto deseado para ver el nombre de la estación.

Haga clic para ver las observaciones y los pronósticos meteorológicos.

Para cambiar el mapa : haga clic en los botones verdes con una cruz de color negro para hacer un zoom, en el botón verde con un guión para alejar o en las flechas verdes para mapas adyacentes.


METAR-TAF: